createdAt,value
2018-08-22T00:01:57.497Z,2.53
2018-08-22T00:04:59.751Z,2.40
2018-08-22T00:08:02.009Z,2.40
2018-08-22T00:11:04.277Z,2.40
2018-08-22T00:14:06.535Z,2.23
2018-08-22T00:17:13.069Z,2.63
2018-08-22T00:20:15.388Z,2.70
2018-08-22T00:23:17.596Z,2.30
2018-08-22T00:26:19.797Z,2.10
2018-08-22T00:29:22.060Z,2.67
2018-08-22T00:32:24.213Z,2.43
2018-08-22T00:35:26.397Z,2.30
2018-08-22T00:38:28.556Z,2.30
2018-08-22T00:41:32.001Z,2.30
2018-08-22T00:44:34.241Z,2.33
2018-08-22T00:47:36.508Z,2.30
2018-08-22T00:50:38.677Z,2.37
2018-08-22T00:53:40.827Z,2.37
2018-08-22T00:56:42.956Z,2.17
2018-08-22T00:59:45.160Z,2.07
2018-08-22T01:02:47.321Z,2.63
2018-08-22T01:05:49.611Z,2.30
2018-08-22T01:08:51.796Z,2.03
2018-08-22T01:11:54.042Z,2.47
2018-08-22T01:14:56.254Z,2.60
2018-08-22T01:17:58.428Z,2.33
2018-08-22T01:21:00.688Z,2.13
2018-08-22T01:24:02.866Z,2.50
2018-08-22T01:27:05.048Z,2.30
2018-08-22T01:30:07.395Z,2.53
2018-08-22T01:33:09.597Z,2.00
2018-08-22T01:36:11.855Z,2.40
2018-08-22T01:39:14.140Z,2.30
2018-08-22T01:42:16.861Z,2.40
2018-08-22T01:45:19.084Z,2.90
2018-08-22T01:48:21.620Z,1.83
2018-08-22T01:51:23.860Z,2.57
2018-08-22T01:54:26.217Z,2.13
2018-08-22T01:57:28.497Z,2.13
2018-08-22T02:00:30.712Z,2.10
2018-08-22T02:03:32.927Z,2.33
2018-08-22T02:06:35.193Z,2.73
2018-08-22T02:09:37.429Z,2.40
2018-08-22T02:12:39.597Z,2.30
2018-08-22T02:15:41.834Z,2.63
2018-08-22T02:18:44.195Z,2.13
2018-08-22T02:21:47.445Z,2.33
2018-08-22T02:24:49.635Z,2.60
2018-08-22T02:27:51.934Z,2.30
2018-08-22T02:30:54.107Z,2.10
2018-08-22T02:33:56.476Z,2.70
2018-08-22T02:36:58.662Z,2.37
2018-08-22T02:40:00.785Z,2.97
2018-08-22T02:43:03.041Z,2.70
2018-08-22T02:46:05.517Z,2.23
2018-08-22T02:49:12.305Z,2.67
2018-08-22T02:52:15.512Z,2.20
2018-08-22T02:55:17.652Z,2.93
2018-08-22T02:58:19.832Z,2.53
2018-08-22T03:01:22.049Z,2.60
2018-08-22T03:04:24.239Z,2.73
2018-08-22T03:07:26.611Z,2.60
2018-08-22T03:10:28.879Z,2.57
2018-08-22T03:13:31.116Z,2.00
2018-08-22T03:16:33.330Z,2.13
2018-08-22T03:19:35.622Z,2.97
2018-08-22T03:22:37.848Z,2.80
2018-08-22T03:25:40.182Z,2.80
2018-08-22T03:28:42.388Z,2.30
2018-08-22T03:31:44.621Z,2.40
2018-08-22T03:34:46.806Z,2.83
2018-08-22T03:37:49.046Z,2.67
2018-08-22T03:40:51.253Z,2.73
2018-08-22T03:43:53.620Z,2.70
2018-08-22T03:46:55.936Z,2.70
2018-08-22T03:49:59.370Z,2.77
2018-08-22T03:53:01.653Z,2.63
2018-08-22T03:56:03.837Z,2.83
2018-08-22T03:59:06.183Z,2.60
2018-08-22T04:02:08.454Z,3.20
2018-08-22T04:05:10.645Z,3.20
2018-08-22T04:08:12.954Z,3.00
2018-08-22T04:11:15.204Z,2.97
2018-08-22T04:14:17.524Z,2.97
2018-08-22T04:17:19.909Z,2.60
2018-08-22T04:20:22.142Z,3.63
2018-08-22T04:23:24.529Z,2.77
2018-08-22T04:26:26.858Z,3.10
2018-08-22T04:29:29.142Z,2.70
2018-08-22T04:32:31.539Z,2.60
2018-08-22T04:35:33.793Z,2.63
2018-08-22T04:38:36.052Z,2.90
2018-08-22T04:41:38.397Z,2.63
2018-08-22T04:44:40.823Z,2.90
2018-08-22T04:47:43.117Z,2.47
2018-08-22T04:50:45.398Z,3.43
2018-08-22T04:53:47.668Z,2.70
2018-08-22T04:56:49.857Z,3.90
2018-08-22T04:59:52.085Z,3.00
2018-08-22T05:02:54.260Z,2.90
2018-08-22T05:05:56.423Z,3.10
2018-08-22T05:08:58.691Z,3.33
2018-08-22T05:12:00.972Z,3.00
2018-08-22T05:15:03.291Z,2.70
2018-08-22T05:18:05.733Z,2.83
2018-08-22T05:21:08.050Z,2.77
2018-08-22T05:24:10.236Z,3.03
2018-08-22T05:27:12.491Z,3.30
2018-08-22T05:30:14.721Z,3.47
2018-08-22T05:33:16.910Z,4.27
2018-08-22T05:36:19.105Z,3.63
2018-08-22T05:39:21.349Z,3.20
2018-08-22T05:42:23.532Z,3.80
2018-08-22T05:45:25.766Z,3.80
2018-08-22T05:48:28.055Z,3.37
2018-08-22T05:51:30.312Z,3.30
2018-08-22T05:54:32.541Z,3.13
2018-08-22T05:57:34.790Z,3.37
2018-08-22T06:00:36.995Z,3.23
2018-08-22T06:03:39.192Z,4.10
2018-08-22T06:06:41.421Z,3.73
2018-08-22T06:09:43.658Z,3.93
2018-08-22T06:12:45.759Z,3.07
2018-08-22T06:15:48.035Z,3.10
2018-08-22T06:18:50.198Z,3.40
2018-08-22T06:21:52.402Z,3.20
2018-08-22T06:24:54.617Z,3.17
2018-08-22T06:27:56.873Z,3.27
2018-08-22T06:30:59.156Z,3.40
2018-08-22T06:34:01.352Z,3.83
2018-08-22T06:37:03.708Z,3.57
2018-08-22T06:40:06.206Z,3.60
2018-08-22T06:43:08.383Z,3.50
2018-08-22T06:46:10.575Z,3.60
2018-08-22T06:49:12.840Z,3.90
2018-08-22T06:52:15.122Z,3.10
2018-08-22T06:55:17.412Z,3.63
2018-08-22T06:58:19.630Z,3.77
2018-08-22T07:01:21.928Z,3.70
2018-08-22T07:04:24.116Z,3.60
2018-08-22T07:07:26.352Z,3.70
2018-08-22T07:10:28.591Z,3.27
2018-08-22T07:13:30.797Z,3.50
2018-08-22T07:16:33.018Z,3.40
2018-08-22T07:19:35.380Z,3.60
2018-08-22T07:22:37.529Z,3.63
2018-08-22T07:25:39.688Z,3.67
2018-08-22T07:28:41.849Z,3.17
2018-08-22T07:31:44.120Z,3.10
2018-08-22T07:34:46.275Z,3.80
2018-08-22T07:37:48.574Z,3.53
2018-08-22T07:40:50.865Z,3.70
2018-08-22T07:43:53.233Z,3.80
2018-08-22T07:46:55.418Z,3.23
2018-08-22T07:51:01.021Z,4.20
2018-08-22T07:54:03.257Z,4.40
2018-08-22T07:57:05.552Z,3.37
2018-08-22T08:00:07.845Z,3.53
2018-08-22T08:03:09.993Z,3.70
2018-08-22T08:06:12.275Z,3.83
2018-08-22T08:09:15.678Z,3.77
2018-08-22T08:12:19.522Z,4.23
2018-08-22T08:15:21.722Z,3.70
2018-08-22T08:18:23.942Z,4.30
2018-08-22T08:21:26.266Z,3.90
2018-08-22T08:24:28.518Z,4.40
2018-08-22T08:27:30.847Z,3.97
2018-08-22T08:30:33.134Z,3.47
2018-08-22T08:33:35.367Z,4.40
2018-08-22T08:36:37.544Z,3.90
2018-08-22T08:39:39.871Z,3.57
2018-08-22T08:42:42.125Z,3.43
2018-08-22T08:45:44.300Z,3.50
2018-08-22T08:48:47.410Z,3.50
2018-08-22T08:51:55.784Z,4.13
2018-08-22T08:54:58.301Z,3.70
2018-08-22T08:58:00.575Z,4.07
2018-08-22T09:01:02.819Z,3.70
2018-08-22T09:04:05.091Z,3.53
2018-08-22T09:07:07.264Z,3.90
2018-08-22T09:10:09.474Z,3.77
2018-08-22T09:13:13.202Z,3.83
2018-08-22T09:16:15.869Z,4.07
2018-08-22T09:19:18.099Z,3.73
2018-08-22T09:22:20.399Z,4.00
2018-08-22T09:25:22.616Z,4.10
2018-08-22T09:28:25.843Z,4.30
2018-08-22T09:31:29.027Z,3.93
2018-08-22T09:34:31.289Z,3.97
2018-08-22T09:37:33.536Z,4.40
2018-08-22T09:40:35.747Z,3.63
2018-08-22T09:43:38.029Z,4.30
2018-08-22T09:46:40.496Z,4.70
2018-08-22T09:49:42.685Z,3.90
2018-08-22T09:52:44.993Z,4.87
2018-08-22T09:55:47.256Z,4.10
2018-08-22T09:58:49.491Z,3.80
2018-08-22T10:01:51.823Z,4.33
2018-08-22T10:04:54.355Z,3.90
2018-08-22T10:07:56.911Z,4.43
2018-08-22T10:10:59.177Z,4.40
2018-08-22T10:14:01.465Z,4.27
2018-08-22T10:17:03.868Z,4.47
2018-08-22T10:20:06.156Z,4.67
2018-08-22T10:23:08.360Z,4.17
2018-08-22T10:26:10.707Z,3.90
2018-08-22T10:29:12.928Z,4.20
2018-08-22T10:32:15.168Z,3.60
2018-08-22T10:35:17.481Z,4.40
2018-08-22T10:38:19.706Z,4.03
2018-08-22T10:41:22.030Z,3.87
2018-08-22T10:44:24.261Z,4.00
2018-08-22T10:47:26.467Z,3.30
2018-08-22T10:50:28.895Z,3.77
2018-08-22T10:53:31.198Z,3.30
2018-08-22T10:56:33.501Z,4.13
2018-08-22T10:59:35.756Z,4.30
2018-08-22T11:02:38.117Z,4.53
2018-08-22T11:05:40.385Z,3.70
2018-08-22T11:08:42.679Z,4.33
2018-08-22T11:11:45.037Z,4.03
2018-08-22T11:14:47.538Z,3.70
2018-08-22T11:17:49.867Z,3.70
2018-08-22T11:20:52.295Z,3.83
2018-08-22T11:24:05.982Z,4.07
2018-08-22T11:27:19.660Z,3.83
2018-08-22T11:30:34.450Z,4.07
2018-08-22T11:33:48.338Z,4.23
2018-08-22T11:36:57.372Z,3.63
2018-08-22T11:39:59.540Z,4.47
2018-08-22T11:43:01.884Z,3.93
2018-08-22T11:46:04.117Z,4.37
2018-08-22T11:49:06.349Z,4.40
2018-08-22T11:52:08.532Z,3.90
2018-08-22T11:55:10.787Z,3.90
2018-08-22T11:58:13.136Z,3.93
2018-08-22T12:01:15.395Z,4.33
2018-08-22T12:04:18.006Z,3.80
2018-08-22T12:07:20.247Z,4.03
2018-08-22T12:10:27.080Z,3.43
2018-08-22T12:13:29.370Z,3.67
2018-08-22T12:16:31.647Z,4.10
2018-08-22T12:19:33.932Z,3.90
2018-08-22T12:22:36.172Z,3.57
2018-08-22T12:25:38.371Z,3.57
2018-08-22T12:28:40.677Z,3.77
2018-08-22T12:31:42.990Z,3.60
2018-08-22T12:34:45.299Z,3.87
2018-08-22T12:37:47.663Z,3.10
2018-08-22T12:40:49.891Z,3.87
2018-08-22T12:43:52.193Z,4.10
2018-08-22T12:46:54.424Z,3.47
2018-08-22T12:49:56.653Z,3.73
2018-08-22T12:52:58.892Z,3.53
2018-08-22T12:56:01.236Z,3.30
2018-08-22T12:59:04.465Z,3.20
2018-08-22T13:02:06.891Z,3.27
2018-08-22T13:05:09.261Z,3.10
2018-08-22T13:08:11.543Z,3.60
2018-08-22T13:11:13.839Z,2.97
2018-08-22T13:14:16.047Z,3.00
2018-08-22T13:17:18.277Z,3.17
2018-08-22T13:20:20.667Z,2.97
2018-08-22T13:23:22.954Z,2.80
2018-08-22T13:26:25.152Z,3.20
2018-08-22T13:29:27.326Z,2.87
2018-08-22T13:32:29.924Z,3.10
2018-08-22T13:35:32.182Z,3.00
2018-08-22T13:38:34.459Z,3.20
2018-08-22T13:41:36.664Z,3.03
2018-08-22T13:44:38.972Z,2.90
2018-08-22T13:47:41.209Z,3.50
2018-08-22T13:50:43.512Z,2.67
2018-08-22T13:53:45.789Z,3.20
2018-08-22T13:56:48.006Z,2.80
2018-08-22T13:59:50.251Z,2.83
2018-08-22T14:02:52.520Z,2.50
2018-08-22T14:05:54.755Z,2.90
2018-08-22T14:08:57.120Z,2.53
2018-08-22T14:11:59.497Z,2.63
2018-08-22T14:15:01.893Z,2.50
2018-08-22T14:18:04.231Z,2.57
2018-08-22T14:21:06.632Z,3.13
2018-08-22T14:24:08.950Z,2.23
2018-08-22T14:27:11.107Z,2.60
2018-08-22T14:30:13.286Z,2.37
2018-08-22T14:33:15.464Z,2.80
2018-08-22T14:36:17.722Z,2.47
2018-08-22T14:39:20.099Z,2.20
2018-08-22T14:42:22.347Z,2.47
2018-08-22T14:45:24.735Z,2.33
2018-08-22T14:48:26.990Z,2.50
2018-08-22T14:51:29.466Z,2.50
2018-08-22T14:54:31.718Z,2.60
2018-08-22T14:57:34.170Z,3.00
2018-08-22T15:00:36.439Z,2.97
2018-08-22T15:03:38.911Z,2.50
2018-08-22T15:06:41.177Z,2.73
2018-08-22T15:09:43.393Z,2.50
2018-08-22T15:12:46.202Z,2.90
2018-08-22T15:15:49.909Z,2.97
2018-08-22T15:18:52.489Z,2.60
2018-08-22T15:21:54.828Z,2.80
2018-08-22T15:24:57.292Z,2.43
2018-08-22T15:27:59.660Z,2.50
2018-08-22T15:31:02.006Z,3.00
2018-08-22T15:34:04.421Z,2.83
2018-08-22T15:37:08.940Z,2.70
2018-08-22T15:40:11.322Z,2.73
2018-08-22T15:43:13.738Z,3.10
2018-08-22T15:46:16.070Z,3.03
2018-08-22T15:49:18.372Z,2.80
2018-08-22T15:52:21.909Z,2.93
2018-08-22T15:55:24.219Z,3.13
2018-08-22T15:58:26.456Z,3.13
2018-08-22T16:01:28.729Z,3.47
2018-08-22T16:04:43.439Z,2.93
2018-08-22T16:07:45.967Z,2.67
2018-08-22T16:10:48.450Z,3.30
2018-08-22T16:13:50.686Z,3.10
2018-08-22T16:16:52.980Z,3.00
2018-08-22T16:19:55.297Z,2.80
2018-08-22T16:22:57.567Z,3.07
2018-08-22T16:26:00.939Z,3.20
2018-08-22T16:29:03.199Z,2.70
2018-08-22T16:32:05.455Z,2.93
2018-08-22T16:35:08.296Z,2.97
2018-08-22T16:38:12.079Z,2.87
2018-08-22T16:41:15.326Z,2.80
2018-08-22T16:44:17.622Z,2.70
2018-08-22T16:47:24.866Z,3.03
2018-08-22T16:50:27.453Z,2.70
2018-08-22T16:53:29.713Z,3.10
2018-08-22T16:56:33.130Z,3.07
2018-08-22T16:59:35.409Z,2.70
2018-08-22T17:02:37.619Z,2.90
2018-08-22T17:05:39.892Z,2.50
2018-08-22T17:08:42.117Z,3.07
2018-08-22T17:11:44.402Z,2.60
2018-08-22T17:14:46.982Z,2.70
2018-08-22T17:17:49.252Z,2.50
2018-08-22T17:20:51.598Z,2.67
2018-08-22T17:23:53.761Z,2.80
2018-08-22T17:26:55.994Z,2.63
2018-08-22T17:29:58.215Z,2.17
2018-08-22T17:33:00.498Z,2.47
2018-08-22T17:36:02.844Z,2.73
2018-08-22T17:39:06.629Z,2.40
2018-08-22T17:42:08.903Z,2.50
2018-08-22T17:45:32.265Z,2.53
2018-08-22T17:48:34.780Z,2.70
2018-08-22T17:52:10.631Z,2.57
2018-08-22T17:55:12.963Z,3.10
2018-08-22T17:58:15.213Z,2.80
2018-08-22T18:01:17.462Z,2.77
2018-08-22T18:04:19.790Z,2.50
2018-08-22T18:07:22.194Z,3.13
2018-08-22T18:10:24.489Z,2.90
2018-08-22T18:13:27.041Z,2.97
2018-08-22T18:16:29.394Z,2.73
2018-08-22T18:19:31.917Z,2.63
2018-08-22T18:22:35.671Z,2.80
2018-08-22T18:25:45.120Z,3.33
2018-08-22T18:28:47.445Z,2.90
2018-08-22T18:31:50.175Z,3.13
2018-08-22T18:35:07.138Z,3.20
2018-08-22T18:38:09.422Z,3.00
2018-08-22T18:41:11.674Z,3.20
2018-08-22T18:44:15.510Z,2.90
2018-08-22T18:47:17.883Z,3.17
2018-08-22T18:50:20.213Z,3.10
2018-08-22T18:53:22.516Z,3.10
2018-08-22T18:56:24.727Z,3.40
2018-08-22T18:59:26.962Z,3.70
2018-08-22T19:02:29.132Z,4.00
2018-08-22T19:05:33.726Z,18.77
2018-08-22T19:08:37.095Z,3.97
2018-08-22T19:11:39.388Z,7.27
2018-08-22T19:14:46.167Z,7.93
2018-08-22T19:17:48.484Z,4.47
2018-08-22T19:20:55.359Z,4.80
2018-08-22T19:24:03.990Z,4.53
2018-08-22T19:27:06.198Z,5.60
2018-08-22T19:30:08.486Z,7.97
2018-08-22T19:33:14.796Z,5.30
2018-08-22T19:36:17.050Z,5.87
2018-08-22T19:39:19.353Z,4.97
2018-08-22T19:42:21.717Z,6.90
2018-08-22T19:45:23.935Z,6.53
2018-08-22T19:48:26.303Z,5.47
2018-08-22T19:51:28.696Z,4.80
2018-08-22T19:54:31.141Z,6.00
2018-08-22T19:57:34.726Z,6.07
2018-08-22T20:00:37.173Z,6.80
2018-08-22T20:03:39.501Z,5.37
2018-08-22T20:06:41.749Z,7.13
2018-08-22T20:09:44.024Z,5.13
2018-08-22T20:12:48.545Z,6.03
2018-08-22T20:15:51.813Z,5.83
2018-08-22T20:18:55.193Z,5.73
2018-08-22T20:21:57.372Z,6.43
2018-08-22T20:25:00.969Z,8.27
2018-08-22T20:28:03.244Z,5.97
2018-08-22T20:31:10.092Z,6.53
2018-08-22T20:34:13.770Z,5.63
2018-08-22T20:37:16.088Z,6.80
2018-08-22T20:40:18.881Z,6.70
2018-08-22T20:43:25.732Z,6.80
2018-08-22T20:46:27.996Z,6.57
2018-08-22T20:49:30.359Z,6.00
2018-08-22T20:52:32.622Z,6.23
2018-08-22T20:55:35.979Z,6.20
2018-08-22T20:58:40.946Z,6.90
2018-08-22T21:01:44.981Z,6.83
2018-08-22T21:04:47.617Z,7.00
2018-08-22T21:07:49.902Z,7.03
2018-08-22T21:10:53.182Z,6.63
2018-08-22T21:13:55.518Z,6.40
2018-08-22T21:16:57.673Z,7.27
2018-08-22T21:20:02.813Z,7.27
2018-08-22T21:23:05.128Z,6.93
2018-08-22T21:26:07.443Z,6.57
2018-08-22T21:29:09.907Z,6.97
2018-08-22T21:32:12.153Z,6.93
2018-08-22T21:35:20.151Z,7.00
2018-08-22T21:38:22.436Z,6.53
2018-08-22T21:41:24.804Z,8.10
2018-08-22T21:44:27.033Z,7.23
2018-08-22T21:47:29.539Z,6.90
2018-08-22T21:50:31.814Z,8.47
2018-08-22T21:53:34.143Z,7.90
2018-08-22T21:56:37.934Z,7.63
2018-08-22T21:59:40.242Z,8.33
2018-08-22T22:02:43.411Z,8.63
2018-08-22T22:06:08.520Z,8.23
2018-08-22T22:09:10.853Z,8.53
2018-08-22T22:12:18.855Z,8.97
2018-08-22T22:15:26.792Z,8.23
2018-08-22T22:18:30.751Z,9.43
2018-08-22T22:21:34.178Z,10.30
2018-08-22T22:24:50.425Z,8.93
2018-08-22T22:27:52.751Z,10.13
2018-08-22T22:30:54.910Z,9.43
2018-08-22T22:33:59.985Z,10.00
2018-08-22T22:37:02.242Z,10.13
2018-08-22T22:40:04.926Z,10.83
2018-08-22T22:43:09.800Z,11.07
2018-08-22T22:46:11.970Z,11.33
2018-08-22T22:49:14.199Z,11.80
2018-08-22T22:52:25.855Z,11.77
2018-08-22T22:55:28.060Z,12.23
2018-08-22T22:58:30.924Z,12.20
2018-08-22T23:01:33.163Z,12.87
2018-08-22T23:04:43.882Z,10.43
2018-08-22T23:07:46.041Z,10.90
2018-08-22T23:10:48.180Z,13.20
2018-08-22T23:13:50.393Z,12.13
2018-08-22T23:16:52.681Z,13.00
2018-08-22T23:20:13.969Z,12.33
2018-08-22T23:23:31.550Z,12.37
2018-08-22T23:26:33.875Z,11.77
2018-08-22T23:29:36.153Z,11.63
2018-08-22T23:32:38.596Z,12.20
2018-08-22T23:35:40.946Z,12.77
2018-08-22T23:38:43.185Z,10.53
2018-08-22T23:41:45.430Z,11.30
2018-08-22T23:44:48.333Z,12.40
2018-08-22T23:47:50.626Z,12.60
2018-08-22T23:50:58.950Z,11.97
2018-08-22T23:54:01.193Z,11.70
2018-08-22T23:57:04.569Z,11.33
